createdAt,value
2022-10-08T00:00:31.921Z,22.50
2022-10-08T00:03:35.364Z,22.80
2022-10-08T00:06:36.744Z,22.70
2022-10-08T00:09:38.595Z,22.60
2022-10-08T00:12:40.706Z,22.10
2022-10-08T00:15:42.518Z,22.70
2022-10-08T00:18:46.689Z,22.20
2022-10-08T00:21:52.371Z,22.20
2022-10-08T00:24:55.372Z,22.80
2022-10-08T00:27:56.733Z,23.50
2022-10-08T00:30:58.043Z,22.20
2022-10-08T00:34:01.357Z,22.50
2022-10-08T00:37:02.797Z,22.60
2022-10-08T00:40:05.147Z,22.30
2022-10-08T00:43:08.351Z,22.20
2022-10-08T00:46:20.340Z,22.60
2022-10-08T00:49:24.487Z,22.10
2022-10-08T00:52:29.176Z,22.50
2022-10-08T00:55:32.183Z,22.40
2022-10-08T00:58:35.817Z,22.60
2022-10-08T01:01:40.362Z,22.60
2022-10-08T01:04:43.120Z,22.20
2022-10-08T01:07:50.959Z,22.80
2022-10-08T01:11:00.035Z,22.40
2022-10-08T01:14:11.453Z,22.40
2022-10-08T01:17:17.225Z,22.40
2022-10-08T01:20:37.683Z,22.50
2022-10-08T01:23:57.625Z,22.20
2022-10-08T01:27:03.482Z,22.60
2022-10-08T01:30:09.549Z,22.40
2022-10-08T01:33:14.385Z,22.70
2022-10-08T01:36:18.200Z,22.40
2022-10-08T01:39:22.146Z,22.20
2022-10-08T01:42:27.223Z,22.20
2022-10-08T01:45:33.928Z,22.30
2022-10-08T01:48:37.775Z,22.50
2022-10-08T01:51:48.787Z,22.60
2022-10-08T01:54:53.538Z,22.10
2022-10-08T01:57:59.069Z,22.20
2022-10-08T02:01:06.247Z,22.50
2022-10-08T02:04:19.273Z,22.30
2022-10-08T02:07:23.983Z,22.30
2022-10-08T02:10:26.276Z,22.20
2022-10-08T02:13:29.615Z,22.20
2022-10-08T02:16:34.657Z,22.50
2022-10-08T02:19:45.991Z,22.50
2022-10-08T02:23:01.181Z,22.00
2022-10-08T02:26:05.310Z,22.50
2022-10-08T02:29:13.002Z,22.40
2022-10-08T02:32:21.760Z,22.40
2022-10-08T02:35:27.315Z,22.10
2022-10-08T02:38:34.607Z,22.50
2022-10-08T02:41:40.336Z,22.40
2022-10-08T02:44:46.728Z,22.80
2022-10-08T02:47:53.801Z,22.10
2022-10-08T02:50:58.649Z,22.40
2022-10-08T02:54:03.771Z,22.40
2022-10-08T02:57:09.983Z,22.20
2022-10-08T03:00:12.395Z,22.60
2022-10-08T03:03:19.555Z,22.10
2022-10-08T03:06:21.606Z,22.20
2022-10-08T03:09:25.169Z,22.40
2022-10-08T03:12:27.090Z,22.20
2022-10-08T03:15:29.065Z,22.20
2022-10-08T03:18:31.752Z,22.40
2022-10-08T03:21:33.604Z,22.50
2022-10-08T03:24:36.065Z,22.60
2022-10-08T03:27:37.466Z,22.30
2022-10-08T03:30:38.929Z,22.20
2022-10-08T03:33:40.948Z,22.40
2022-10-08T03:36:42.409Z,22.40
2022-10-08T03:39:43.629Z,22.40
2022-10-08T03:42:45.335Z,22.30
2022-10-08T03:45:49.972Z,22.20
2022-10-08T03:48:52.149Z,22.10
2022-10-08T03:51:53.678Z,22.50
2022-10-08T03:54:55.306Z,22.60
2022-10-08T03:57:56.713Z,22.50
2022-10-08T04:00:58.599Z,22.00
2022-10-08T04:04:00.552Z,22.10
2022-10-08T04:07:01.924Z,22.20
2022-10-08T04:10:03.537Z,21.90
2022-10-08T04:13:04.985Z,22.10
2022-10-08T04:16:07.203Z,22.30
2022-10-08T04:19:11.073Z,22.20
2022-10-08T04:22:12.466Z,22.40
2022-10-08T04:25:14.119Z,22.10
2022-10-08T04:28:15.599Z,22.60
2022-10-08T04:31:22.718Z,22.10
2022-10-08T04:34:24.654Z,22.00
2022-10-08T04:37:26.123Z,22.20
2022-10-08T04:40:27.344Z,22.40
2022-10-08T04:43:28.796Z,22.40
2022-10-08T04:46:30.193Z,22.40
2022-10-08T04:49:32.262Z,22.30
2022-10-08T04:52:33.773Z,22.10
2022-10-08T04:55:38.412Z,22.50
2022-10-08T04:58:40.063Z,22.40
2022-10-08T05:01:44.659Z,22.40
2022-10-08T05:04:46.647Z,22.40
2022-10-08T05:07:48.096Z,22.00
2022-10-08T05:10:49.430Z,22.50
2022-10-08T05:13:51.689Z,22.10
2022-10-08T05:16:53.120Z,22.40
2022-10-08T05:19:55.080Z,22.20
2022-10-08T05:22:56.513Z,22.60
2022-10-08T05:25:58.099Z,22.40
2022-10-08T05:28:59.806Z,22.20
2022-10-08T05:32:01.436Z,22.60
2022-10-08T05:35:03.722Z,22.10
2022-10-08T05:38:05.151Z,22.30
2022-10-08T05:41:07.310Z,22.00
2022-10-08T05:44:10.318Z,22.30
2022-10-08T05:47:11.706Z,22.10
2022-10-08T05:50:16.674Z,22.00
2022-10-08T05:53:18.076Z,22.50
2022-10-08T05:56:20.376Z,22.20
2022-10-08T05:59:23.650Z,22.00
2022-10-08T06:02:25.291Z,22.30
2022-10-08T06:05:27.320Z,22.40
2022-10-08T06:08:28.860Z,22.40
2022-10-08T06:11:32.512Z,22.00
2022-10-08T06:14:33.954Z,22.20
2022-10-08T06:17:35.256Z,22.30
2022-10-08T06:20:37.500Z,21.80
2022-10-08T06:23:44.116Z,22.40
2022-10-08T06:26:48.590Z,21.90
2022-10-08T06:29:50.060Z,22.00
2022-10-08T06:32:54.408Z,22.00
2022-10-08T06:35:56.472Z,22.00
2022-10-08T06:39:00.025Z,22.00
2022-10-08T06:42:01.502Z,22.30
2022-10-08T06:45:11.326Z,22.40
2022-10-08T06:48:13.068Z,22.50
2022-10-08T06:51:18.269Z,22.50
2022-10-08T06:54:19.670Z,22.60
2022-10-08T06:57:21.201Z,22.30
2022-10-08T07:00:22.656Z,22.40
2022-10-08T07:03:24.013Z,22.50
2022-10-08T07:06:26.725Z,21.90
2022-10-08T07:09:28.248Z,22.50
2022-10-08T07:12:29.757Z,22.50
2022-10-08T07:15:31.938Z,22.50
2022-10-08T07:18:34.881Z,22.30
2022-10-08T07:21:37.031Z,22.10
2022-10-08T07:24:38.443Z,22.80
2022-10-08T07:27:45.049Z,22.30
2022-10-08T07:30:46.716Z,22.20
2022-10-08T07:33:48.332Z,22.50
2022-10-08T07:36:50.667Z,22.60
2022-10-08T07:39:53.056Z,22.50
2022-10-08T07:42:54.383Z,22.60
2022-10-08T07:45:55.938Z,22.50
2022-10-08T07:48:58.432Z,22.20
2022-10-08T07:52:00.355Z,22.50
2022-10-08T07:55:01.818Z,22.20
2022-10-08T07:58:03.845Z,22.60
2022-10-08T08:01:08.148Z,22.50
2022-10-08T08:04:11.118Z,22.70
2022-10-08T08:07:13.200Z,22.70
2022-10-08T08:10:14.611Z,22.30
2022-10-08T08:13:15.901Z,22.60
2022-10-08T08:16:19.078Z,22.30
2022-10-08T08:19:20.764Z,22.50
2022-10-08T08:22:22.904Z,22.60
2022-10-08T08:25:24.277Z,22.70
2022-10-08T08:28:25.768Z,22.40
2022-10-08T08:31:28.981Z,22.70
2022-10-08T08:34:30.860Z,22.50
2022-10-08T08:37:32.982Z,22.60
2022-10-08T08:40:34.364Z,22.70
2022-10-08T08:43:35.604Z,22.50
2022-10-08T08:46:41.823Z,22.90
2022-10-08T08:49:46.458Z,22.60
2022-10-08T08:52:48.898Z,22.80
2022-10-08T08:55:54.819Z,22.30
2022-10-08T08:59:01.853Z,22.40
2022-10-08T09:02:12.423Z,22.80
2022-10-08T09:05:17.062Z,22.60
2022-10-08T09:08:23.565Z,23.20
2022-10-08T09:11:25.298Z,22.70
2022-10-08T09:14:34.421Z,22.40
2022-10-08T09:17:39.887Z,22.60
2022-10-08T09:20:42.354Z,22.80
2022-10-08T09:23:45.206Z,22.40
2022-10-08T09:26:46.604Z,22.50
2022-10-08T09:29:48.113Z,22.90
2022-10-08T09:32:50.094Z,22.80
2022-10-08T09:35:53.385Z,23.10
2022-10-08T09:38:58.303Z,22.70
2022-10-08T09:42:13.150Z,22.80
2022-10-08T09:45:31.520Z,22.70
2022-10-08T09:48:32.976Z,22.70
2022-10-08T09:51:34.308Z,23.20
2022-10-08T09:54:43.048Z,23.00
2022-10-08T09:57:47.735Z,23.00
2022-10-08T10:01:04.549Z,22.70
2022-10-08T10:04:06.137Z,22.90
2022-10-08T10:07:07.931Z,22.90
2022-10-08T10:10:17.037Z,22.80
2022-10-08T10:13:21.781Z,23.10
2022-10-08T10:16:27.593Z,22.80
2022-10-08T10:19:32.478Z,23.20
2022-10-08T10:22:43.415Z,23.30
2022-10-08T10:25:49.398Z,23.50
2022-10-08T10:28:54.318Z,23.10
2022-10-08T10:32:00.543Z,22.90
2022-10-08T10:35:06.810Z,23.30
2022-10-08T10:38:12.901Z,23.10
2022-10-08T10:41:22.252Z,23.20
2022-10-08T10:44:30.804Z,23.10
2022-10-08T10:47:33.242Z,23.00
2022-10-08T10:50:40.079Z,22.90
2022-10-08T10:53:51.530Z,23.40
2022-10-08T10:56:55.849Z,23.10
2022-10-08T11:00:04.280Z,23.50
2022-10-08T11:03:14.283Z,23.20
2022-10-08T11:06:37.525Z,23.10
2022-10-08T11:09:50.189Z,23.00
2022-10-08T11:12:58.897Z,23.10
2022-10-08T11:16:10.959Z,22.90
2022-10-08T11:19:24.848Z,23.30
2022-10-08T11:22:33.304Z,23.20
2022-10-08T11:26:02.052Z,23.10
2022-10-08T11:29:11.155Z,23.10
2022-10-08T11:32:14.627Z,22.90
2022-10-08T11:35:25.665Z,23.40
2022-10-08T11:38:34.867Z,23.20
2022-10-08T11:41:48.123Z,23.00
2022-10-08T11:44:50.288Z,23.30
2022-10-08T11:47:53.637Z,23.30
2022-10-08T11:51:30.222Z,23.50
2022-10-08T11:54:50.543Z,23.10
2022-10-08T11:58:08.017Z,23.20
2022-10-08T12:01:16.527Z,23.70
2022-10-08T12:04:22.028Z,23.30
2022-10-08T12:07:32.308Z,23.10
2022-10-08T12:10:34.549Z,23.10
2022-10-08T12:13:36.134Z,23.40
2022-10-08T12:17:07.292Z,23.20
2022-10-08T12:20:22.014Z,23.30
2022-10-08T12:23:37.884Z,23.50
2022-10-08T12:27:17.307Z,23.30
2022-10-08T12:30:19.050Z,23.30
2022-10-08T12:33:20.959Z,23.30
2022-10-08T12:36:33.970Z,23.10
2022-10-08T12:39:39.871Z,23.50
2022-10-08T12:42:41.813Z,22.90
2022-10-08T12:45:56.794Z,23.70
2022-10-08T12:49:03.764Z,23.50
2022-10-08T12:52:09.736Z,23.40
2022-10-08T12:55:16.310Z,23.40
2022-10-08T12:58:21.409Z,23.50
2022-10-08T13:01:24.148Z,23.30
2022-10-08T13:04:29.172Z,23.50
2022-10-08T13:07:34.373Z,23.60
2022-10-08T13:10:36.134Z,23.50
2022-10-08T13:13:44.126Z,23.60
2022-10-08T13:16:46.845Z,23.50
2022-10-08T13:19:48.328Z,23.70
2022-10-08T13:22:50.764Z,23.60
2022-10-08T13:25:52.221Z,23.60
2022-10-08T13:29:20.273Z,23.50
2022-10-08T13:32:24.812Z,23.80
2022-10-08T13:35:26.254Z,23.50
2022-10-08T13:38:29.384Z,23.40
2022-10-08T13:41:31.109Z,23.80
2022-10-08T13:44:34.029Z,23.40
2022-10-08T13:47:38.520Z,23.90
2022-10-08T13:50:42.770Z,23.70
2022-10-08T13:53:47.915Z,24.00
2022-10-08T13:56:49.792Z,23.70
2022-10-08T13:59:51.283Z,23.40
2022-10-08T14:02:52.766Z,23.80
2022-10-08T14:05:54.481Z,23.70
2022-10-08T14:08:57.862Z,23.70
2022-10-08T14:12:04.289Z,23.60
2022-10-08T14:15:07.611Z,23.80
2022-10-08T14:18:09.184Z,23.60
2022-10-08T14:21:14.303Z,23.70
2022-10-08T14:24:16.431Z,23.90
2022-10-08T14:27:18.345Z,23.70
2022-10-08T14:30:19.977Z,23.50
2022-10-08T14:33:21.577Z,23.80
2022-10-08T14:36:24.448Z,23.70
2022-10-08T14:39:27.110Z,23.80
2022-10-08T14:42:28.880Z,23.40
2022-10-08T14:45:30.337Z,23.80
2022-10-08T14:48:31.944Z,23.70
2022-10-08T14:51:37.809Z,23.90
2022-10-08T14:54:39.880Z,23.70
2022-10-08T14:57:41.470Z,23.70
2022-10-08T15:00:43.108Z,24.00
2022-10-08T15:03:45.091Z,23.50
2022-10-08T15:06:46.612Z,23.80
2022-10-08T15:09:48.712Z,23.90
2022-10-08T15:12:50.910Z,24.10
2022-10-08T15:15:52.545Z,23.70
2022-10-08T15:18:54.126Z,23.80
2022-10-08T15:21:55.607Z,23.90
2022-10-08T15:24:57.738Z,23.90
2022-10-08T15:27:59.129Z,23.90
2022-10-08T15:31:02.765Z,23.50
2022-10-08T15:34:04.287Z,23.70
2022-10-08T15:37:07.193Z,24.00
2022-10-08T15:40:09.965Z,23.50
2022-10-08T15:43:14.668Z,23.80
2022-10-08T15:46:18.000Z,23.90
2022-10-08T15:49:22.659Z,23.70
2022-10-08T15:52:24.145Z,24.00
2022-10-08T15:55:26.101Z,23.90
2022-10-08T15:58:49.440Z,24.30
2022-10-08T16:01:52.066Z,23.80
2022-10-08T16:04:53.584Z,24.10
2022-10-08T16:07:55.510Z,23.90
2022-10-08T16:10:58.364Z,24.00
2022-10-08T16:14:01.628Z,23.90
2022-10-08T16:17:03.154Z,23.90
2022-10-08T16:20:06.132Z,24.00
2022-10-08T16:23:08.682Z,23.90
2022-10-08T16:26:13.040Z,23.90
2022-10-08T16:29:16.596Z,23.90
2022-10-08T16:32:17.996Z,23.60
2022-10-08T16:35:19.336Z,23.90
2022-10-08T16:38:20.998Z,24.10
2022-10-08T16:41:25.300Z,23.90
2022-10-08T16:44:27.501Z,24.00
2022-10-08T16:47:28.893Z,24.00
2022-10-08T16:50:30.804Z,24.20
2022-10-08T16:53:32.565Z,24.00
2022-10-08T16:56:37.537Z,23.80
2022-10-08T16:59:39.107Z,23.90
2022-10-08T17:02:40.552Z,24.00
2022-10-08T17:05:42.184Z,24.00
2022-10-08T17:08:43.602Z,24.00
2022-10-08T17:11:45.732Z,23.90
2022-10-08T17:14:47.233Z,24.00
2022-10-08T17:17:52.091Z,23.80
2022-10-08T17:20:57.127Z,23.90
2022-10-08T17:23:59.330Z,24.00
2022-10-08T17:27:02.173Z,23.90
2022-10-08T17:30:04.070Z,23.90
2022-10-08T17:33:05.652Z,23.90
2022-10-08T17:36:09.425Z,24.00
2022-10-08T17:39:12.893Z,24.00
2022-10-08T17:42:14.857Z,23.60
2022-10-08T17:45:16.387Z,23.90
2022-10-08T17:48:17.931Z,23.70
2022-10-08T17:51:21.098Z,23.90
2022-10-08T17:54:22.670Z,23.60
2022-10-08T17:57:24.790Z,23.90
2022-10-08T18:00:26.858Z,23.60
2022-10-08T18:03:28.273Z,23.40
2022-10-08T18:06:31.046Z,23.80
2022-10-08T18:09:32.499Z,23.50
2022-10-08T18:12:35.047Z,23.90
2022-10-08T18:15:36.758Z,23.70
2022-10-08T18:18:38.492Z,23.50
2022-10-08T18:21:43.011Z,23.60
2022-10-08T18:24:44.441Z,23.80
2022-10-08T18:27:47.243Z,23.80
2022-10-08T18:30:48.728Z,23.60
2022-10-08T18:33:54.018Z,23.90
2022-10-08T18:36:55.449Z,23.70
2022-10-08T18:39:56.929Z,23.00
2022-10-08T18:42:58.895Z,23.50
2022-10-08T18:46:05.650Z,23.80
2022-10-08T18:49:07.218Z,23.30
2022-10-08T18:52:11.965Z,23.40
2022-10-08T18:55:13.684Z,23.40
2022-10-08T18:58:15.677Z,23.10
2022-10-08T19:01:19.109Z,23.30
2022-10-08T19:04:21.800Z,23.60
2022-10-08T19:07:23.251Z,23.40
2022-10-08T19:10:24.490Z,23.40
2022-10-08T19:13:26.474Z,23.30
2022-10-08T19:16:31.645Z,23.30
2022-10-08T19:19:33.047Z,23.20
2022-10-08T19:22:34.409Z,23.10
2022-10-08T19:25:35.887Z,23.50
2022-10-08T19:28:38.764Z,23.30
2022-10-08T19:31:40.649Z,23.00
2022-10-08T19:34:42.373Z,23.10
2022-10-08T19:37:43.732Z,23.50
2022-10-08T19:40:44.993Z,23.50
2022-10-08T19:43:47.344Z,23.00
2022-10-08T19:46:49.210Z,23.00
2022-10-08T19:49:50.656Z,23.10
2022-10-08T19:52:52.127Z,23.20
2022-10-08T19:55:53.539Z,23.00
2022-10-08T19:58:55.530Z,23.10
2022-10-08T20:01:57.314Z,22.90
2022-10-08T20:04:58.729Z,23.10
2022-10-08T20:07:59.994Z,23.30
2022-10-08T20:11:02.321Z,23.40
2022-10-08T20:14:04.618Z,23.20
2022-10-08T20:17:06.130Z,23.20
2022-10-08T20:20:31.773Z,23.10
2022-10-08T20:23:33.629Z,23.30
2022-10-08T20:26:36.882Z,22.50
2022-10-08T20:29:38.904Z,23.10
2022-10-08T20:32:40.775Z,23.00
2022-10-08T20:35:42.162Z,22.80
2022-10-08T20:38:43.477Z,22.80
2022-10-08T20:41:45.168Z,23.30
2022-10-08T20:44:47.150Z,22.90
2022-10-08T20:47:48.670Z,23.00
2022-10-08T20:50:50.071Z,23.00
2022-10-08T20:53:52.203Z,23.20
2022-10-08T20:56:53.584Z,22.80
2022-10-08T20:59:56.143Z,23.00
2022-10-08T21:02:57.777Z,23.10
2022-10-08T21:05:59.688Z,22.80
2022-10-08T21:09:01.185Z,22.90
2022-10-08T21:12:02.701Z,22.50
2022-10-08T21:15:05.592Z,23.00
2022-10-08T21:18:07.264Z,22.90
2022-10-08T21:21:12.303Z,22.50
2022-10-08T21:24:14.249Z,22.90
2022-10-08T21:27:15.636Z,23.00
2022-10-08T21:30:17.542Z,22.80
2022-10-08T21:33:18.983Z,22.80
2022-10-08T21:36:21.541Z,23.00
2022-10-08T21:39:22.977Z,23.20
2022-10-08T21:42:24.273Z,22.50
2022-10-08T21:45:26.344Z,22.70
2022-10-08T21:48:29.447Z,22.90
2022-10-08T21:51:32.108Z,22.30
2022-10-08T21:54:33.728Z,22.70
2022-10-08T21:57:35.100Z,22.40
2022-10-08T22:00:37.043Z,22.80
2022-10-08T22:03:38.591Z,22.60
2022-10-08T22:06:40.732Z,22.70
2022-10-08T22:09:42.247Z,22.60
2022-10-08T22:12:43.636Z,22.80
2022-10-08T22:15:53.877Z,22.50
2022-10-08T22:18:58.798Z,22.20
2022-10-08T22:22:01.089Z,23.00
2022-10-08T22:25:02.702Z,22.30
2022-10-08T22:28:04.676Z,22.60
2022-10-08T22:31:09.375Z,22.80
2022-10-08T22:34:11.723Z,22.50
2022-10-08T22:37:13.625Z,22.80
2022-10-08T22:40:15.317Z,22.50
2022-10-08T22:43:16.703Z,22.10
2022-10-08T22:46:20.028Z,22.30
2022-10-08T22:49:21.670Z,22.80
2022-10-08T22:52:23.291Z,22.20
2022-10-08T22:55:24.842Z,22.80
2022-10-08T22:58:26.265Z,22.70
2022-10-08T23:01:28.715Z,22.60
2022-10-08T23:04:30.296Z,22.20
2022-10-08T23:07:31.772Z,22.40
2022-10-08T23:10:33.200Z,22.50
2022-10-08T23:13:34.764Z,22.20
2022-10-08T23:16:36.866Z,22.20
2022-10-08T23:19:38.514Z,22.70
2022-10-08T23:22:40.029Z,22.90
2022-10-08T23:25:44.365Z,22.70
2022-10-08T23:28:50.108Z,22.20
2022-10-08T23:31:53.141Z,22.50
2022-10-08T23:34:55.099Z,22.60
2022-10-08T23:37:56.459Z,22.30
2022-10-08T23:40:59.541Z,22.40
2022-10-08T23:44:01.048Z,22.50
2022-10-08T23:47:03.048Z,22.20
2022-10-08T23:50:05.676Z,22.20
2022-10-08T23:53:07.079Z,22.30
2022-10-08T23:56:08.651Z,22.40
2022-10-08T23:59:10.149Z,22.00
